sensor_id;sensor_type;location;lat;lon;timestamp;pressure;altitude;pressure_sealevel;temperature;humidity
16613;BME280;8419;52.358;9.752;2023-07-13T00:01:22;100674.00;;;28.09;35.04
16613;BME280;8419;52.358;9.752;2023-07-13T00:04:09;100684.00;;;28.07;35.22
16613;BME280;8419;52.358;9.752;2023-07-13T00:06:54;100679.00;;;28.00;35.49
16613;BME280;8419;52.358;9.752;2023-07-13T00:09:40;100678.00;;;28.01;35.56
16613;BME280;8419;52.358;9.752;2023-07-13T00:12:29;100683.00;;;28.09;35.46
16613;BME280;8419;52.358;9.752;2023-07-13T00:15:17;100681.00;;;28.05;35.60
16613;BME280;8419;52.358;9.752;2023-07-13T00:18:07;100679.00;;;27.97;35.77
16613;BME280;8419;52.358;9.752;2023-07-13T00:20:52;100679.00;;;27.94;35.83
16613;BME280;8419;52.358;9.752;2023-07-13T00:23:40;100692.00;;;27.79;36.08
16613;BME280;8419;52.358;9.752;2023-07-13T00:26:25;100688.00;;;27.83;36.09
16613;BME280;8419;52.358;9.752;2023-07-13T00:29:11;100698.00;;;27.87;36.07
16613;BME280;8419;52.358;9.752;2023-07-13T00:31:57;100706.00;;;27.84;36.19
16613;BME280;8419;52.358;9.752;2023-07-13T00:34:42;100705.00;;;27.93;36.11
16613;BME280;8419;52.358;9.752;2023-07-13T00:37:28;100697.00;;;27.97;36.15
16613;BME280;8419;52.358;9.752;2023-07-13T00:40:15;100692.00;;;28.05;36.06
16613;BME280;8419;52.358;9.752;2023-07-13T00:43:00;100685.00;;;28.04;36.20
16613;BME280;8419;52.358;9.752;2023-07-13T00:49:20;100685.00;;;27.99;36.30
16613;BME280;8419;52.358;9.752;2023-07-13T00:52:09;100683.00;;;27.90;36.42
16613;BME280;8419;52.358;9.752;2023-07-13T00:54:55;100684.00;;;27.82;36.55
16613;BME280;8419;52.358;9.752;2023-07-13T00:57:42;100690.00;;;27.86;36.58
16613;BME280;8419;52.358;9.752;2023-07-13T01:00:32;100688.00;;;27.77;36.74
16613;BME280;8419;52.358;9.752;2023-07-13T01:03:20;100684.00;;;27.78;36.72
16613;BME280;8419;52.358;9.752;2023-07-13T01:06:06;100677.00;;;27.73;36.82
16613;BME280;8419;52.358;9.752;2023-07-13T01:08:53;100681.00;;;27.59;37.04
16613;BME280;8419;52.358;9.752;2023-07-13T01:11:39;100671.00;;;27.53;37.09
16613;BME280;8419;52.358;9.752;2023-07-13T01:14:25;100675.00;;;27.52;37.18
16613;BME280;8419;52.358;9.752;2023-07-13T01:17:11;100674.00;;;27.22;37.68
16613;BME280;8419;52.358;9.752;2023-07-13T01:19:57;100673.00;;;27.09;37.90
16613;BME280;8419;52.358;9.752;2023-07-13T01:22:42;100681.00;;;27.01;37.97
16613;BME280;8419;52.358;9.752;2023-07-13T01:25:28;100681.00;;;27.01;37.97
16613;BME280;8419;52.358;9.752;2023-07-13T01:28:14;100682.00;;;26.98;37.93
16613;BME280;8419;52.358;9.752;2023-07-13T01:31:01;100672.00;;;26.85;38.13
16613;BME280;8419;52.358;9.752;2023-07-13T01:33:47;100676.00;;;26.84;38.11
16613;BME280;8419;52.358;9.752;2023-07-13T01:36:32;100677.00;;;26.82;38.12
16613;BME280;8419;52.358;9.752;2023-07-13T01:39:18;100681.00;;;26.81;38.07
16613;BME280;8419;52.358;9.752;2023-07-13T01:42:04;100674.00;;;26.67;38.26
16613;BME280;8419;52.358;9.752;2023-07-13T01:44:50;100676.00;;;26.58;38.41
16613;BME280;8419;52.358;9.752;2023-07-13T01:47:35;100682.00;;;26.54;38.49
16613;BME280;8419;52.358;9.752;2023-07-13T01:50:21;100684.00;;;26.57;38.41
16613;BME280;8419;52.358;9.752;2023-07-13T01:53:10;100686.00;;;26.48;38.50
16613;BME280;8419;52.358;9.752;2023-07-13T01:55:55;100687.00;;;26.62;38.27
16613;BME280;8419;52.358;9.752;2023-07-13T01:58:40;100685.00;;;26.43;38.49
16613;BME280;8419;52.358;9.752;2023-07-13T02:01:26;100689.00;;;26.45;38.44
16613;BME280;8419;52.358;9.752;2023-07-13T02:04:12;100693.00;;;26.41;38.41
16613;BME280;8419;52.358;9.752;2023-07-13T02:06:57;100695.00;;;26.39;38.43
16613;BME280;8419;52.358;9.752;2023-07-13T02:09:43;100699.00;;;26.46;38.28
16613;BME280;8419;52.358;9.752;2023-07-13T02:12:28;100709.00;;;26.36;38.42
16613;BME280;8419;52.358;9.752;2023-07-13T02:15:14;100704.00;;;26.36;38.42
16613;BME280;8419;52.358;9.752;2023-07-13T02:17:59;100704.00;;;26.30;38.49
16613;BME280;8419;52.358;9.752;2023-07-13T02:20:45;100706.00;;;26.29;38.49
16613;BME280;8419;52.358;9.752;2023-07-13T02:23:34;100709.00;;;26.31;38.46
16613;BME280;8419;52.358;9.752;2023-07-13T02:26:19;100710.00;;;26.30;38.48
16613;BME280;8419;52.358;9.752;2023-07-13T02:29:05;100715.00;;;26.19;38.66
16613;BME280;8419;52.358;9.752;2023-07-13T02:31:50;100715.00;;;26.25;38.51
16613;BME280;8419;52.358;9.752;2023-07-13T02:34:36;100711.00;;;26.13;38.67
16613;BME280;8419;52.358;9.752;2023-07-13T02:37:21;100706.00;;;26.11;38.64
16613;BME280;8419;52.358;9.752;2023-07-13T02:40:08;100715.00;;;26.15;38.54
16613;BME280;8419;52.358;9.752;2023-07-13T02:42:57;100712.00;;;26.39;38.02
16613;BME280;8419;52.358;9.752;2023-07-13T02:45:44;100712.00;;;26.21;38.29
16613;BME280;8419;52.358;9.752;2023-07-13T02:48:33;100711.00;;;26.18;38.38
16613;BME280;8419;52.358;9.752;2023-07-13T02:51:18;100710.00;;;26.13;38.43
16613;BME280;8419;52.358;9.752;2023-07-13T02:54:05;100717.00;;;26.11;38.36
16613;BME280;8419;52.358;9.752;2023-07-13T02:56:50;100707.00;;;26.05;38.45
16613;BME280;8419;52.358;9.752;2023-07-13T02:59:36;100709.00;;;26.03;38.45
16613;BME280;8419;52.358;9.752;2023-07-13T03:02:21;100718.00;;;26.02;38.43
16613;BME280;8419;52.358;9.752;2023-07-13T03:05:07;100719.00;;;25.88;38.64
16613;BME280;8419;52.358;9.752;2023-07-13T03:07:57;100710.00;;;25.88;38.66
16613;BME280;8419;52.358;9.752;2023-07-13T03:10:43;100716.00;;;25.88;38.63
16613;BME280;8419;52.358;9.752;2023-07-13T03:13:29;100719.00;;;25.87;38.63
16613;BME280;8419;52.358;9.752;2023-07-13T03:16:15;100708.00;;;25.90;38.53
16613;BME280;8419;52.358;9.752;2023-07-13T03:19:01;100721.00;;;25.91;38.52
16613;BME280;8419;52.358;9.752;2023-07-13T03:21:46;100715.00;;;25.91;38.47
16613;BME280;8419;52.358;9.752;2023-07-13T03:24:33;100705.00;;;26.01;38.28
16613;BME280;8419;52.358;9.752;2023-07-13T03:27:19;100696.00;;;25.99;38.27
16613;BME280;8419;52.358;9.752;2023-07-13T03:30:06;100703.00;;;26.01;38.18
16613;BME280;8419;52.358;9.752;2023-07-13T03:32:52;100712.00;;;25.93;38.30
16613;BME280;8419;52.358;9.752;2023-07-13T03:35:40;100715.00;;;25.89;38.38
16613;BME280;8419;52.358;9.752;2023-07-13T03:38:26;100715.00;;;25.79;38.53
16613;BME280;8419;52.358;9.752;2023-07-13T03:41:12;100713.00;;;25.71;38.64
16613;BME280;8419;52.358;9.752;2023-07-13T03:43:57;100708.00;;;25.73;38.56
16613;BME280;8419;52.358;9.752;2023-07-13T03:46:44;100714.00;;;25.74;38.53
16613;BME280;8419;52.358;9.752;2023-07-13T03:49:30;100712.00;;;25.72;38.53
16613;BME280;8419;52.358;9.752;2023-07-13T03:52:15;100722.00;;;25.75;38.45
16613;BME280;8419;52.358;9.752;2023-07-13T03:55:00;100710.00;;;25.92;38.20
16613;BME280;8419;52.358;9.752;2023-07-13T03:57:52;100711.00;;;26.18;37.81
16613;BME280;8419;52.358;9.752;2023-07-13T04:00:37;100725.00;;;26.23;37.78
16613;BME280;8419;52.358;9.752;2023-07-13T04:03:23;100724.00;;;26.32;37.57
16613;BME280;8419;52.358;9.752;2023-07-13T04:06:16;100729.00;;;26.22;37.90
16613;BME280;8419;52.358;9.752;2023-07-13T04:09:06;100736.00;;;26.26;37.95
16613;BME280;8419;52.358;9.752;2023-07-13T04:11:51;100736.00;;;26.34;37.79
16613;BME280;8419;52.358;9.752;2023-07-13T04:14:37;100736.00;;;26.34;37.82
16613;BME280;8419;52.358;9.752;2023-07-13T04:17:23;100733.00;;;26.52;37.52
16613;BME280;8419;52.358;9.752;2023-07-13T04:20:09;100736.00;;;26.64;37.34
16613;BME280;8419;52.358;9.752;2023-07-13T04:22:54;100738.00;;;26.63;37.37
16613;BME280;8419;52.358;9.752;2023-07-13T04:25:42;100742.00;;;26.73;37.20
16613;BME280;8419;52.358;9.752;2023-07-13T04:28:28;100751.00;;;26.92;36.85
16613;BME280;8419;52.358;9.752;2023-07-13T04:31:15;100744.00;;;26.81;37.02
16613;BME280;8419;52.358;9.752;2023-07-13T04:34:00;100749.00;;;26.84;36.95
16613;BME280;8419;52.358;9.752;2023-07-13T04:36:46;100745.00;;;26.74;37.04
16613;BME280;8419;52.358;9.752;2023-07-13T04:39:32;100748.00;;;26.69;37.09
16613;BME280;8419;52.358;9.752;2023-07-13T04:42:17;100754.00;;;26.63;37.15
16613;BME280;8419;52.358;9.752;2023-07-13T04:45:04;100755.00;;;26.62;37.12
16613;BME280;8419;52.358;9.752;2023-07-13T04:47:50;100748.00;;;26.61;37.06
16613;BME280;8419;52.358;9.752;2023-07-13T04:50:37;100751.00;;;26.58;37.03
16613;BME280;8419;52.358;9.752;2023-07-13T04:53:22;100745.00;;;26.70;36.74
16613;BME280;8419;52.358;9.752;2023-07-13T04:56:07;100749.00;;;26.53;36.95
16613;BME280;8419;52.358;9.752;2023-07-13T04:58:53;100749.00;;;26.50;36.92
16613;BME280;8419;52.358;9.752;2023-07-13T05:01:39;100755.00;;;26.63;36.64
16613;BME280;8419;52.358;9.752;2023-07-13T05:04:25;100755.00;;;26.63;36.61
16613;BME280;8419;52.358;9.752;2023-07-13T05:07:11;100761.00;;;26.62;36.60
16613;BME280;8419;52.358;9.752;2023-07-13T05:09:56;100758.00;;;26.64;36.56
16613;BME280;8419;52.358;9.752;2023-07-13T05:12:42;100771.00;;;26.66;36.51
16613;BME280;8419;52.358;9.752;2023-07-13T05:15:27;100764.00;;;26.76;36.41
16613;BME280;8419;52.358;9.752;2023-07-13T05:18:13;100767.00;;;26.77;36.34
16613;BME280;8419;52.358;9.752;2023-07-13T05:21:00;100762.00;;;26.81;36.33
16613;BME280;8419;52.358;9.752;2023-07-13T05:23:47;100767.00;;;26.95;36.17
16613;BME280;8419;52.358;9.752;2023-07-13T05:26:33;100773.00;;;27.12;36.00
16613;BME280;8419;52.358;9.752;2023-07-13T05:29:18;100771.00;;;26.94;36.34
16613;BME280;8419;52.358;9.752;2023-07-13T05:32:05;100775.00;;;26.98;36.33
16613;BME280;8419;52.358;9.752;2023-07-13T05:34:51;100776.00;;;27.09;36.23
16613;BME280;8419;52.358;9.752;2023-07-13T05:37:37;100777.00;;;27.16;36.02
16613;BME280;8419;52.358;9.752;2023-07-13T05:40:23;100778.00;;;27.10;36.06
16613;BME280;8419;52.358;9.752;2023-07-13T05:43:08;100784.00;;;27.33;35.70
16613;BME280;8419;52.358;9.752;2023-07-13T05:45:55;100787.00;;;27.23;35.78
16613;BME280;8419;52.358;9.752;2023-07-13T05:48:41;100791.00;;;27.05;36.12
16613;BME280;8419;52.358;9.752;2023-07-13T05:51:27;100784.00;;;26.96;36.30
16613;BME280;8419;52.358;9.752;2023-07-13T05:54:12;100794.00;;;26.92;36.32
16613;BME280;8419;52.358;9.752;2023-07-13T05:56:58;100784.00;;;26.94;36.29
16613;BME280;8419;52.358;9.752;2023-07-13T05:59:44;100789.00;;;27.00;36.13
16613;BME280;8419;52.358;9.752;2023-07-13T06:02:30;100800.00;;;26.90;36.24
16613;BME280;8419;52.358;9.752;2023-07-13T06:05:15;100798.00;;;27.06;35.97
16613;BME280;8419;52.358;9.752;2023-07-13T06:08:01;100786.00;;;26.95;36.14
16613;BME280;8419;52.358;9.752;2023-07-13T06:10:46;100795.00;;;26.91;36.27
16613;BME280;8419;52.358;9.752;2023-07-13T06:13:32;100785.00;;;27.00;36.12
16613;BME280;8419;52.358;9.752;2023-07-13T06:16:18;100788.00;;;27.01;36.17
16613;BME280;8419;52.358;9.752;2023-07-13T06:19:04;100790.00;;;27.27;35.77
16613;BME280;8419;52.358;9.752;2023-07-13T06:21:49;100788.00;;;27.32;35.61
16613;BME280;8419;52.358;9.752;2023-07-13T06:24:36;100803.00;;;27.28;35.50
16613;BME280;8419;52.358;9.752;2023-07-13T06:27:22;100807.00;;;27.22;35.56
16613;BME280;8419;52.358;9.752;2023-07-13T06:30:10;100801.00;;;27.37;35.37
16613;BME280;8419;52.358;9.752;2023-07-13T06:32:56;100803.00;;;27.34;35.36
16613;BME280;8419;52.358;9.752;2023-07-13T06:35:42;100810.00;;;27.32;35.36
16613;BME280;8419;52.358;9.752;2023-07-13T06:38:27;100808.00;;;27.38;35.13
16613;BME280;8419;52.358;9.752;2023-07-13T06:41:13;100817.00;;;27.56;34.84
16613;BME280;8419;52.358;9.752;2023-07-13T06:43:58;100813.00;;;27.54;34.75
16613;BME280;8419;52.358;9.752;2023-07-13T06:46:44;100820.00;;;27.53;34.82
16613;BME280;8419;52.358;9.752;2023-07-13T06:49:30;100825.00;;;27.48;34.78
16613;BME280;8419;52.358;9.752;2023-07-13T06:52:15;100830.00;;;27.62;34.63
16613;BME280;8419;52.358;9.752;2023-07-13T06:55:01;100818.00;;;27.60;34.59
16613;BME280;8419;52.358;9.752;2023-07-13T06:57:47;100824.00;;;27.44;34.72
16613;BME280;8419;52.358;9.752;2023-07-13T07:00:32;100821.00;;;27.56;34.47
16613;BME280;8419;52.358;9.752;2023-07-13T07:03:18;100829.00;;;27.53;34.42
16613;BME280;8419;52.358;9.752;2023-07-13T07:06:13;100816.00;;;27.43;34.55
16613;BME280;8419;52.358;9.752;2023-07-13T07:09:00;100818.00;;;27.60;34.34
16613;BME280;8419;52.358;9.752;2023-07-13T07:11:45;100827.00;;;27.62;34.33
16613;BME280;8419;52.358;9.752;2023-07-13T07:14:31;100820.00;;;27.56;34.43
16613;BME280;8419;52.358;9.752;2023-07-13T07:17:16;100818.00;;;27.71;34.23
16613;BME280;8419;52.358;9.752;2023-07-13T07:20:01;100832.00;;;27.83;34.19
16613;BME280;8419;52.358;9.752;2023-07-13T07:22:48;100832.00;;;28.03;33.71
16613;BME280;8419;52.358;9.752;2023-07-13T07:25:34;100832.00;;;28.09;33.45
16613;BME280;8419;52.358;9.752;2023-07-13T07:28:22;100836.00;;;28.17;33.31
16613;BME280;8419;52.358;9.752;2023-07-13T07:31:07;100836.00;;;28.13;33.25
16613;BME280;8419;52.358;9.752;2023-07-13T07:33:53;100829.00;;;28.25;33.21
16613;BME280;8419;52.358;9.752;2023-07-13T07:36:38;100833.00;;;28.59;32.73
16613;BME280;8419;52.358;9.752;2023-07-13T07:39:24;100840.00;;;28.75;32.63
16613;BME280;8419;52.358;9.752;2023-07-13T07:42:09;100843.00;;;29.04;32.21
16613;BME280;8419;52.358;9.752;2023-07-13T07:44:55;100844.00;;;29.00;32.18
16613;BME280;8419;52.358;9.752;2023-07-13T07:47:41;100844.00;;;29.09;32.09
16613;BME280;8419;52.358;9.752;2023-07-13T07:50:27;100844.00;;;29.29;31.72
16613;BME280;8419;52.358;9.752;2023-07-13T07:53:16;100837.00;;;29.18;31.78
16613;BME280;8419;52.358;9.752;2023-07-13T07:56:01;100838.00;;;29.22;31.61
16613;BME280;8419;52.358;9.752;2023-07-13T07:58:47;100839.00;;;29.16;31.50
16613;BME280;8419;52.358;9.752;2023-07-13T08:01:32;100845.00;;;29.10;31.52
16613;BME280;8419;52.358;9.752;2023-07-13T08:04:18;100845.00;;;29.10;31.46
16613;BME280;8419;52.358;9.752;2023-07-13T08:07:05;100831.00;;;29.21;31.32
16613;BME280;8419;52.358;9.752;2023-07-13T08:09:54;100829.00;;;29.43;31.06
16613;BME280;8419;52.358;9.752;2023-07-13T08:12:40;100833.00;;;29.62;30.96
16613;BME280;8419;52.358;9.752;2023-07-13T08:15:25;100830.00;;;29.75;30.83
16613;BME280;8419;52.358;9.752;2023-07-13T08:18:11;100837.00;;;29.81;30.80
16613;BME280;8419;52.358;9.752;2023-07-13T08:20:57;100833.00;;;29.67;30.92
16613;BME280;8419;52.358;9.752;2023-07-13T08:23:43;100830.00;;;29.57;31.08
16613;BME280;8419;52.358;9.752;2023-07-13T08:26:28;100840.00;;;29.82;30.89
16613;BME280;8419;52.358;9.752;2023-07-13T08:29:14;100832.00;;;29.97;30.74
16613;BME280;8419;52.358;9.752;2023-07-13T08:31:59;100843.00;;;30.07;30.50
16613;BME280;8419;52.358;9.752;2023-07-13T08:34:45;100842.00;;;30.21;30.38
16613;BME280;8419;52.358;9.752;2023-07-13T08:37:31;100837.00;;;30.20;30.49
16613;BME280;8419;52.358;9.752;2023-07-13T08:40:27;100842.00;;;30.17;30.45
16613;BME280;8419;52.358;9.752;2023-07-13T08:43:15;100844.00;;;30.34;30.36
16613;BME280;8419;52.358;9.752;2023-07-13T08:46:08;100839.00;;;30.47;30.11
16613;BME280;8419;52.358;9.752;2023-07-13T08:48:57;100842.00;;;30.23;30.51
16613;BME280;8419;52.358;9.752;2023-07-13T08:51:47;100846.00;;;30.04;30.51
16613;BME280;8419;52.358;9.752;2023-07-13T08:54:38;100839.00;;;29.79;30.89
16613;BME280;8419;52.358;9.752;2023-07-13T08:57:29;100836.00;;;29.77;31.03
16613;BME280;8419;52.358;9.752;2023-07-13T09:00:17;100842.00;;;29.59;31.23
16613;BME280;8419;52.358;9.752;2023-07-13T09:03:06;100840.00;;;29.50;31.28
16613;BME280;8419;52.358;9.752;2023-07-13T09:05:59;100849.00;;;29.36;31.46
16613;BME280;8419;52.358;9.752;2023-07-13T09:08:53;100846.00;;;29.40;31.49
16613;BME280;8419;52.358;9.752;2023-07-13T09:14:54;100854.00;;;29.71;31.06
16613;BME280;8419;52.358;9.752;2023-07-13T09:17:47;100853.00;;;29.84;30.81
16613;BME280;8419;52.358;9.752;2023-07-13T09:20:36;100864.00;;;30.15;30.51
16613;BME280;8419;52.358;9.752;2023-07-13T09:23:26;100865.00;;;30.27;30.22
16613;BME280;8419;52.358;9.752;2023-07-13T09:26:18;100860.00;;;30.24;30.28
16613;BME280;8419;52.358;9.752;2023-07-13T09:29:24;100863.00;;;30.19;30.46
16613;BME280;8419;52.358;9.752;2023-07-13T09:32:13;100858.00;;;30.23;30.40
16613;BME280;8419;52.358;9.752;2023-07-13T09:35:00;100852.00;;;30.39;30.21
16613;BME280;8419;52.358;9.752;2023-07-13T09:37:47;100861.00;;;30.47;30.18
16613;BME280;8419;52.358;9.752;2023-07-13T09:40:42;100864.00;;;30.46;30.30
16613;BME280;8419;52.358;9.752;2023-07-13T09:43:30;100863.00;;;30.68;29.97
16613;BME280;8419;52.358;9.752;2023-07-13T09:46:21;100867.00;;;30.79;29.43
16613;BME280;8419;52.358;9.752;2023-07-13T09:49:10;100850.00;;;30.94;29.60
16613;BME280;8419;52.358;9.752;2023-07-13T09:52:13;100854.00;;;31.27;29.08
16613;BME280;8419;52.358;9.752;2023-07-13T09:55:01;100856.00;;;31.23;29.20
16613;BME280;8419;52.358;9.752;2023-07-13T09:57:49;100848.00;;;31.12;29.14
16613;BME280;8419;52.358;9.752;2023-07-13T10:00:44;100861.00;;;31.21;28.94
16613;BME280;8419;52.358;9.752;2023-07-13T10:03:42;100855.00;;;31.29;28.94
16613;BME280;8419;52.358;9.752;2023-07-13T10:06:39;100855.00;;;31.47;28.91
16613;BME280;8419;52.358;9.752;2023-07-13T10:09:27;100856.00;;;31.40;28.83
16613;BME280;8419;52.358;9.752;2023-07-13T10:12:20;100854.00;;;31.42;28.82
16613;BME280;8419;52.358;9.752;2023-07-13T10:15:18;100857.00;;;31.24;29.05
16613;BME280;8419;52.358;9.752;2023-07-13T10:18:05;100862.00;;;31.04;28.89
16613;BME280;8419;52.358;9.752;2023-07-13T10:21:09;100864.00;;;30.96;28.85
16613;BME280;8419;52.358;9.752;2023-07-13T10:24:00;100857.00;;;31.16;28.82
16613;BME280;8419;52.358;9.752;2023-07-13T10:26:56;100853.00;;;31.35;28.68
16613;BME280;8419;52.358;9.752;2023-07-13T10:29:46;100857.00;;;31.87;27.91
16613;BME280;8419;52.358;9.752;2023-07-13T10:32:36;100856.00;;;31.86;27.15
16613;BME280;8419;52.358;9.752;2023-07-13T10:35:22;100851.00;;;31.68;27.33
16613;BME280;8419;52.358;9.752;2023-07-13T10:38:14;100860.00;;;31.90;27.32
16613;BME280;8419;52.358;9.752;2023-07-13T10:41:03;100859.00;;;32.29;26.82
16613;BME280;8419;52.358;9.752;2023-07-13T10:43:53;100854.00;;;32.16;26.73
16613;BME280;8419;52.358;9.752;2023-07-13T10:46:41;100844.00;;;32.28;26.52
16613;BME280;8419;52.358;9.752;2023-07-13T10:49:30;100847.00;;;32.27;26.47
16613;BME280;8419;52.358;9.752;2023-07-13T10:52:42;100848.00;;;32.21;26.54
16613;BME280;8419;52.358;9.752;2023-07-13T10:55:36;100848.00;;;32.32;26.16
16613;BME280;8419;52.358;9.752;2023-07-13T10:58:33;100855.00;;;32.12;26.39
16613;BME280;8419;52.358;9.752;2023-07-13T11:01:19;100850.00;;;32.14;26.16
16613;BME280;8419;52.358;9.752;2023-07-13T11:04:05;100859.00;;;32.31;25.83
16613;BME280;8419;52.358;9.752;2023-07-13T11:06:53;100853.00;;;32.37;25.81
16613;BME280;8419;52.358;9.752;2023-07-13T11:09:42;100852.00;;;32.49;25.77
16613;BME280;8419;52.358;9.752;2023-07-13T11:12:52;100856.00;;;32.95;25.47
16613;BME280;8419;52.358;9.752;2023-07-13T11:15:45;100860.00;;;32.99;25.32
16613;BME280;8419;52.358;9.752;2023-07-13T11:18:33;100858.00;;;32.63;25.50
16613;BME280;8419;52.358;9.752;2023-07-13T11:21:21;100857.00;;;32.77;25.42
16613;BME280;8419;52.358;9.752;2023-07-13T11:24:16;100865.00;;;33.10;24.66
16613;BME280;8419;52.358;9.752;2023-07-13T11:27:22;100863.00;;;33.14;24.28
16613;BME280;8419;52.358;9.752;2023-07-13T11:30:31;100855.00;;;33.09;24.38
16613;BME280;8419;52.358;9.752;2023-07-13T11:33:20;100853.00;;;33.38;24.33
16613;BME280;8419;52.358;9.752;2023-07-13T11:36:14;100838.00;;;33.52;24.35
16613;BME280;8419;52.358;9.752;2023-07-13T11:39:02;100852.00;;;33.51;24.02
16613;BME280;8419;52.358;9.752;2023-07-13T11:41:52;100844.00;;;33.71;23.98
16613;BME280;8419;52.358;9.752;2023-07-13T11:44:43;100854.00;;;33.81;23.79
16613;BME280;8419;52.358;9.752;2023-07-13T11:47:32;100842.00;;;33.87;23.68
16613;BME280;8419;52.358;9.752;2023-07-13T11:50:21;100853.00;;;33.77;23.51
16613;BME280;8419;52.358;9.752;2023-07-13T11:53:12;100842.00;;;33.67;23.65
16613;BME280;8419;52.358;9.752;2023-07-13T11:55:59;100835.00;;;33.85;23.33
16613;BME280;8419;52.358;9.752;2023-07-13T11:58:49;100839.00;;;33.81;23.26
16613;BME280;8419;52.358;9.752;2023-07-13T12:01:38;100850.00;;;34.07;22.90
16613;BME280;8419;52.358;9.752;2023-07-13T12:04:29;100846.00;;;34.36;22.31
16613;BME280;8419;52.358;9.752;2023-07-13T12:07:18;100841.00;;;34.81;21.92
16613;BME280;8419;52.358;9.752;2023-07-13T12:10:15;100835.00;;;35.31;21.57
16613;BME280;8419;52.358;9.752;2023-07-13T12:13:04;100828.00;;;35.80;21.42
16613;BME280;8419;52.358;9.752;2023-07-13T12:15:50;100848.00;;;35.82;20.91
16613;BME280;8419;52.358;9.752;2023-07-13T12:18:37;100840.00;;;35.89;20.87
16613;BME280;8419;52.358;9.752;2023-07-13T12:21:31;100852.00;;;35.21;21.25
16613;BME280;8419;52.358;9.752;2023-07-13T12:24:18;100831.00;;;35.02;21.42
16613;BME280;8419;52.358;9.752;2023-07-13T12:27:05;100837.00;;;34.42;22.12
16613;BME280;8419;52.358;9.752;2023-07-13T12:29:56;100839.00;;;33.80;22.90
16613;BME280;8419;52.358;9.752;2023-07-13T12:32:43;100856.00;;;33.64;23.26
16613;BME280;8419;52.358;9.752;2023-07-13T12:35:42;100853.00;;;33.56;23.48
16613;BME280;8419;52.358;9.752;2023-07-13T12:38:32;100857.00;;;33.70;23.31
16613;BME280;8419;52.358;9.752;2023-07-13T12:41:20;100846.00;;;34.74;22.47
16613;BME280;8419;52.358;9.752;2023-07-13T12:44:12;100843.00;;;34.88;22.32
16613;BME280;8419;52.358;9.752;2023-07-13T12:47:03;100838.00;;;35.03;22.33
16613;BME280;8419;52.358;9.752;2023-07-13T12:49:52;100834.00;;;36.17;21.37
16613;BME280;8419;52.358;9.752;2023-07-13T12:52:38;100855.00;;;36.16;21.01
16613;BME280;8419;52.358;9.752;2023-07-13T12:55:25;100854.00;;;35.44;21.60
16613;BME280;8419;52.358;9.752;2023-07-13T12:58:24;100863.00;;;34.50;22.55
16613;BME280;8419;52.358;9.752;2023-07-13T13:01:11;100859.00;;;33.73;23.19
16613;BME280;8419;52.358;9.752;2023-07-13T13:04:02;100857.00;;;33.45;23.51
16613;BME280;8419;52.358;9.752;2023-07-13T13:07:02;100877.00;;;33.11;23.90
16613;BME280;8419;52.358;9.752;2023-07-13T13:09:55;100900.00;;;32.55;25.13
16613;BME280;8419;52.358;9.752;2023-07-13T13:12:42;100914.00;;;30.78;30.24
16613;BME280;8419;52.358;9.752;2023-07-13T13:15:27;100899.00;;;29.26;33.41
16613;BME280;8419;52.358;9.752;2023-07-13T13:18:17;100900.00;;;28.51;33.88
16613;BME280;8419;52.358;9.752;2023-07-13T13:21:03;100891.00;;;28.10;34.23
16613;BME280;8419;52.358;9.752;2023-07-13T13:23:49;100893.00;;;27.92;34.65
16613;BME280;8419;52.358;9.752;2023-07-13T13:26:37;100901.00;;;27.72;34.89
16613;BME280;8419;52.358;9.752;2023-07-13T13:29:23;100900.00;;;27.85;34.99
16613;BME280;8419;52.358;9.752;2023-07-13T13:32:12;100904.00;;;28.00;34.86
16613;BME280;8419;52.358;9.752;2023-07-13T13:34:58;100902.00;;;28.27;34.79
16613;BME280;8419;52.358;9.752;2023-07-13T13:37:44;100901.00;;;28.77;34.15
16613;BME280;8419;52.358;9.752;2023-07-13T13:40:30;100900.00;;;28.87;34.04
16613;BME280;8419;52.358;9.752;2023-07-13T13:43:21;100920.00;;;28.87;34.04
16613;BME280;8419;52.358;9.752;2023-07-13T13:46:17;100926.00;;;28.67;34.51
16613;BME280;8419;52.358;9.752;2023-07-13T13:49:07;100946.00;;;28.29;35.03
16613;BME280;8419;52.358;9.752;2023-07-13T13:51:54;100954.00;;;27.78;35.72
16613;BME280;8419;52.358;9.752;2023-07-13T13:54:41;100968.00;;;27.31;36.55
16613;BME280;8419;52.358;9.752;2023-07-13T13:57:30;100970.00;;;27.44;36.52
16613;BME280;8419;52.358;9.752;2023-07-13T14:00:21;100962.00;;;27.88;35.97
16613;BME280;8419;52.358;9.752;2023-07-13T14:03:14;100968.00;;;28.29;36.19
16613;BME280;8419;52.358;9.752;2023-07-13T14:06:03;100959.00;;;28.67;36.47
16613;BME280;8419;52.358;9.752;2023-07-13T14:08:53;100957.00;;;28.92;36.43
16613;BME280;8419;52.358;9.752;2023-07-13T14:11:43;100957.00;;;29.30;36.40
16613;BME280;8419;52.358;9.752;2023-07-13T14:14:31;100959.00;;;29.40;36.74
16613;BME280;8419;52.358;9.752;2023-07-13T14:17:23;100958.00;;;29.49;36.70
16613;BME280;8419;52.358;9.752;2023-07-13T14:20:14;100964.00;;;29.75;36.70
16613;BME280;8419;52.358;9.752;2023-07-13T14:23:07;100970.00;;;29.92;36.50
16613;BME280;8419;52.358;9.752;2023-07-13T14:25:54;100968.00;;;30.51;35.89
16613;BME280;8419;52.358;9.752;2023-07-13T14:28:44;100989.00;;;30.53;35.63
16613;BME280;8419;52.358;9.752;2023-07-13T14:31:34;100996.00;;;30.62;35.26
16613;BME280;8419;52.358;9.752;2023-07-13T14:34:20;100997.00;;;30.98;34.72
16613;BME280;8419;52.358;9.752;2023-07-13T14:37:16;101002.00;;;31.16;34.29
16613;BME280;8419;52.358;9.752;2023-07-13T14:40:15;101013.00;;;31.13;34.38
16613;BME280;8419;52.358;9.752;2023-07-13T14:43:02;101018.00;;;31.06;34.33
16613;BME280;8419;52.358;9.752;2023-07-13T14:45:58;101042.00;;;30.40;34.05
16613;BME280;8419;52.358;9.752;2023-07-13T14:48:45;101054.00;;;30.05;33.17
16613;BME280;8419;52.358;9.752;2023-07-13T14:51:31;101063.00;;;29.01;35.16
16613;BME280;8419;52.358;9.752;2023-07-13T14:54:18;101063.00;;;27.98;36.89
16613;BME280;8419;52.358;9.752;2023-07-13T14:57:07;101063.00;;;27.83;36.86